Time;durP1;ratioP1;P1;durP2;ratioP2;P2;SDS_P1;SDS_P2;PMS_P1;PMS_P2;Temp;Humidity;BMP_temperature;BMP_pressure;BME280_temperature;BME280_humidity;BME280_pressure;Samples;Min_cycle;Max_cycle;Signal;HPM_P1;HPM_P2
2022/05/17 00:01:06;;;;;;;6.57;4.10;;;13.20;99.90;;;;;;5062025;28;20223;-82
2022/05/17 00:03:32;;;;;;;4.53;3.30;;;13.20;99.90;;;;;;5060330;28;20178;-82
2022/05/17 00:05:58;;;;;;;8.03;3.50;;;13.20;99.90;;;;;;5061981;28;20177;-82
2022/05/17 00:08:24;;;;;;;4.87;3.10;;;;;;;;;;5061294;28;20178;-82
2022/05/17 00:10:50;;;;;;;5.37;3.57;;;13.00;99.90;;;;;;5061670;28;20231;-82
2022/05/17 00:13:16;;;;;;;7.50;3.73;;;;;;;;;;5061749;28;20213;-82
2022/05/17 00:15:48;;;;;;;6.97;3.90;;;13.00;99.90;;;;;;5060928;28;20208;-82
2022/05/17 00:18:16;;;;;;;4.93;3.30;;;13.20;99.90;;;;;;5058101;28;20571;-81
2022/05/17 00:20:43;;;;;;;5.07;3.40;;;13.10;99.90;;;;;;5055854;28;20182;-82
2022/05/17 00:23:11;;;;;;;4.57;3.10;;;13.20;99.90;;;;;;5054698;28;20177;-82
2022/05/17 00:25:36;;;;;;;7.37;4.07;;;12.90;99.90;;;;;;5058614;28;20201;-81
2022/05/17 00:28:02;;;;;;;5.93;3.80;;;;;;;;;;5062236;28;20182;-82
2022/05/17 00:30:28;;;;;;;5.83;3.83;;;13.10;99.90;;;;;;5062282;28;20212;-82
2022/05/17 00:32:54;;;;;;;3.80;3.30;;;;;;;;;;5060923;28;20540;-82
2022/05/17 00:35:20;;;;;;;4.73;3.67;;;;;;;;;;5062194;28;20220;-82
2022/05/17 00:37:46;;;;;;;5.00;3.67;;;;;;;;;;5061172;28;20177;-82
2022/05/17 00:40:14;;;;;;;4.30;3.50;;;12.90;99.90;;;;;;5060612;28;20272;-82
2022/05/17 00:42:40;;;;;;;4.77;3.37;;;;;;;;;;5060809;28;20199;-82
2022/05/17 00:45:09;;;;;;;4.80;3.50;;;13.00;99.90;;;;;;5062489;28;20252;-82
2022/05/17 00:47:48;;;;;;;3.67;3.27;;;13.00;99.90;;;;;;5061517;28;20228;-82
2022/05/17 00:50:20;;;;;;;7.07;3.83;;;12.90;99.90;;;;;;5061410;28;20668;-82
2022/05/17 00:52:55;;;;;;;5.10;3.80;;;12.70;99.90;;;;;;5062258;28;20173;-82
2022/05/17 00:55:44;;;;;;;5.27;3.50;;;13.00;99.90;;;;;;5062180;28;20201;-82
2022/05/17 00:58:16;;;;;;;5.37;3.10;;;12.90;99.90;;;;;;5062034;28;20537;-82
2022/05/17 01:01:02;;;;;;;3.87;3.07;;;12.90;99.90;;;;;;5061613;28;20168;-82
2022/05/17 01:03:46;;;;;;;6.13;3.07;;;12.90;99.90;;;;;;5061244;28;20203;-82
2022/05/17 01:06:13;;;;;;;5.87;3.60;;;12.70;99.90;;;;;;5062687;28;20222;-82
2022/05/17 01:08:39;;;;;;;4.73;3.90;;;12.80;99.90;;;;;;5062544;28;20199;-82
2022/05/17 01:11:05;;;;;;;5.67;3.43;;;;;;;;;;5062060;28;20213;-82
2022/05/17 01:16:15;;;;;;;5.13;3.90;;;12.60;99.90;;;;;;5063353;28;20166;-82
2022/05/17 01:18:42;;;;;;;6.90;4.63;;;12.70;99.90;;;;;;5063268;28;20170;-83
2022/05/17 01:21:09;;;;;;;4.47;3.07;;;12.70;99.90;;;;;;5066162;28;20265;-82
2022/05/17 01:23:35;;;;;;;6.70;3.87;;;;;;;;;;5067218;28;20173;-81
2022/05/17 01:26:02;;;;;;;5.10;3.97;;;;;;;;;;5066595;28;20627;-82
2022/05/17 01:28:31;;;;;;;5.77;3.90;;;12.60;99.90;;;;;;5067011;28;20230;-82
2022/05/17 01:31:03;;;;;;;4.43;4.00;;;;;;;;;;5067549;28;20573;-82
2022/05/17 01:33:30;;;;;;;8.33;4.10;;;12.50;99.90;;;;;;5069294;28;20178;-82
2022/05/17 01:35:56;;;;;;;5.07;3.87;;;;;;;;;;5067358;28;20181;-82
2022/05/17 01:38:22;;;;;;;6.97;3.57;;;;;;;;;;5067127;28;20174;-82
2022/05/17 01:40:48;;;;;;;8.43;4.10;;;;;;;;;;5067650;28;20192;-82
2022/05/17 01:43:14;;;;;;;7.73;4.30;;;;;;;;;;5068727;28;20180;-81
2022/05/17 01:45:40;;;;;;;7.37;4.03;;;;;;;;;;5066231;28;20208;-82
2022/05/17 01:48:06;;;;;;;5.83;3.47;;;;;;;;;;5066205;28;20583;-81
2022/05/17 01:50:32;;;;;;;5.00;3.97;;;;;;;;;;5067788;28;20247;-81
2022/05/17 01:52:58;;;;;;;8.70;3.87;;;;;;;;;;5068239;28;20233;-82
2022/05/17 01:55:24;;;;;;;4.53;3.73;;;;;;;;;;5066764;28;20366;-82
2022/05/17 01:57:50;;;;;;;6.90;3.90;;;;;;;;;;5066712;28;20216;-81
2022/05/17 02:00:18;;;;;;;9.77;3.40;;;12.10;99.90;;;;;;5065103;28;20177;-81
2022/05/17 02:02:44;;;;;;;8.63;3.83;;;;;;;;;;5068913;28;20182;-81
2022/05/17 02:05:10;;;;;;;5.30;4.27;;;12.20;99.90;;;;;;5067276;28;20750;-81
2022/05/17 02:07:36;;;;;;;4.80;3.60;;;12.20;99.90;;;;;;5076497;28;20189;-81
2022/05/17 02:10:03;;;;;;;4.77;3.60;;;12.10;99.90;;;;;;5078479;28;20201;-81
2022/05/17 02:12:29;;;;;;;6.03;4.03;;;;;;;;;;5079163;28;20176;-80
2022/05/17 02:14:54;;;;;;;5.90;3.97;;;12.10;99.90;;;;;;5072681;28;20209;-81
2022/05/17 02:17:20;;;;;;;7.40;3.50;;;;;;;;;;5063024;28;20563;-81
2022/05/17 02:19:46;;;;;;;6.13;3.60;;;11.80;99.90;;;;;;5062292;28;20175;-81
2022/05/17 02:22:11;;;;;;;6.23;4.30;;;11.90;99.90;;;;;;5062573;28;20184;-81
2022/05/17 02:24:37;;;;;;;7.13;4.03;;;;;;;;;;5062245;28;20235;-81
2022/05/17 02:27:04;;;;;;;5.07;3.93;;;;;;;;;;5061975;28;20542;-81
2022/05/17 02:29:30;;;;;;;4.40;3.10;;;;;;;;;;5060453;28;20181;-81
2022/05/17 02:31:57;;;;;;;4.77;3.80;;;11.80;99.90;;;;;;5058549;28;20178;-81
2022/05/17 02:34:23;;;;;;;6.43;4.00;;;11.80;99.90;;;;;;5058932;28;20704;-81
2022/05/17 02:36:49;;;;;;;8.00;3.83;;;;;;;;;;5056144;28;20177;-82
2022/05/17 02:39:15;;;;;;;4.50;4.10;;;11.80;99.90;;;;;;5054738;28;20181;-81
2022/05/17 02:41:41;;;;;;;5.50;4.33;;;11.80;99.90;;;;;;5057192;28;20635;-82
2022/05/17 02:44:06;;;;;;;5.53;3.87;;;11.70;99.90;;;;;;5061335;28;20202;-81
2022/05/17 02:46:33;;;;;;;4.97;3.70;;;11.60;99.90;;;;;;5061732;28;20204;-81
2022/05/17 02:49:02;;;;;;;6.50;4.17;;;11.60;99.90;;;;;;5063242;28;20181;-82
2022/05/17 02:51:28;;;;;;;8.53;4.07;;;11.60;99.90;;;;;;5062523;28;20209;-81
2022/05/17 02:53:54;;;;;;;5.67;4.40;;;11.60;99.90;;;;;;5063160;28;20197;-81
2022/05/17 02:56:20;;;;;;;7.03;3.90;;;11.60;99.90;;;;;;5061906;28;20177;-81
2022/05/17 02:58:46;;;;;;;7.47;4.23;;;;;;;;;;5062158;28;20181;-81
2022/05/17 03:01:11;;;;;;;5.73;4.13;;;11.60;99.90;;;;;;5063533;28;20199;-82
2022/05/17 03:03:42;;;;;;;5.57;4.33;;;11.50;99.90;;;;;;5064625;28;20181;-81
2022/05/17 03:06:08;;;;;;;7.97;4.60;;;11.50;99.90;;;;;;5060923;28;20184;-81
2022/05/17 03:08:34;;;;;;;3.97;3.53;;;11.50;99.90;;;;;;5061060;28;20189;-81
2022/05/17 03:11:00;;;;;;;4.60;4.10;;;11.40;99.90;;;;;;5061264;28;20207;-82
2022/05/17 03:13:26;;;;;;;6.60;4.10;;;11.50;99.90;;;;;;5061398;28;20193;-81
2022/05/17 03:15:52;;;;;;;6.53;3.57;;;11.40;99.90;;;;;;5063165;28;20231;-81
2022/05/17 03:18:19;;;;;;;7.83;4.40;;;11.40;99.90;;;;;;5060927;28;20635;-81
2022/05/17 03:20:44;;;;;;;5.83;4.13;;;11.40;99.90;;;;;;5062720;28;20185;-81
2022/05/17 03:23:10;;;;;;;5.80;3.93;;;11.40;99.90;;;;;;5062893;28;20179;-81
2022/05/17 03:25:36;;;;;;;6.37;3.83;;;11.40;99.90;;;;;;5060531;28;20220;-81
2022/05/17 03:28:02;;;;;;;6.83;4.27;;;11.40;99.90;;;;;;5062261;28;20184;-81
2022/05/17 03:30:28;;;;;;;5.47;4.10;;;11.40;99.90;;;;;;5060784;28;20205;-81
2022/05/17 03:32:55;;;;;;;6.53;4.23;;;;;;;;;;5061636;28;20188;-81
2022/05/17 03:35:21;;;;;;;4.43;4.03;;;11.30;99.90;;;;;;5061249;28;20199;-81
2022/05/17 03:37:46;;;;;;;4.47;4.07;;;11.30;99.90;;;;;;5062791;28;20168;-81
2022/05/17 03:40:12;;;;;;;6.10;3.70;;;11.30;99.90;;;;;;5060700;28;20177;-81
2022/05/17 03:42:38;;;;;;;11.73;4.87;;;11.30;99.90;;;;;;5060598;28;20181;-80
2022/05/17 03:45:05;;;;;;;6.20;4.37;;;11.20;99.90;;;;;;5060441;28;20204;-80
2022/05/17 03:47:31;;;;;;;7.50;4.70;;;11.20;99.90;;;;;;5060064;28;20229;-81
2022/05/17 03:49:57;;;;;;;5.57;4.47;;;11.20;99.90;;;;;;5057696;28;20201;-80
2022/05/17 03:52:27;;;;;;;6.77;4.23;;;11.10;99.90;;;;;;5058466;28;20177;-81
2022/05/17 03:54:58;;;;;;;6.53;4.57;;;11.10;99.90;;;;;;5060385;28;20253;-81
2022/05/17 03:57:25;;;;;;;5.37;4.50;;;11.10;99.90;;;;;;5062082;28;20175;-81
2022/05/17 03:59:51;;;;;;;8.13;4.80;;;11.10;99.90;;;;;;5061980;28;20231;-81
2022/05/17 04:02:17;;;;;;;5.53;4.57;;;11.10;99.90;;;;;;5062163;28;20170;-81
2022/05/17 04:04:43;;;;;;;7.47;4.80;;;11.10;99.90;;;;;;5063745;28;20220;-81
2022/05/17 04:07:09;;;;;;;8.07;4.77;;;;;;;;;;5060732;28;20178;-81
2022/05/17 04:09:34;;;;;;;6.23;4.33;;;11.10;99.90;;;;;;5061199;28;20182;-81
2022/05/17 04:12:00;;;;;;;6.33;4.20;;;;;;;;;;5061962;28;20639;-81
2022/05/17 04:14:26;;;;;;;7.83;4.10;;;11.10;99.90;;;;;;5061304;28;20209;-80
2022/05/17 04:16:52;;;;;;;6.80;4.03;;;11.10;99.90;;;;;;5061752;28;20178;-81
2022/05/17 04:19:17;;;;;;;12.17;4.63;;;11.10;99.90;;;;;;5060868;28;20231;-80
2022/05/17 04:21:44;;;;;;;9.90;4.40;;;;;;;;;;5060972;28;20185;-81
2022/05/17 04:24:10;;;;;;;6.63;4.10;;;11.10;99.90;;;;;;5059706;28;20201;-80
2022/05/17 04:26:37;;;;;;;11.60;4.67;;;11.10;99.90;;;;;;5059579;28;20185;-81
2022/05/17 04:29:03;;;;;;;5.57;4.17;;;11.20;99.90;;;;;;5060962;28;20185;-80
2022/05/17 04:31:29;;;;;;;6.50;4.40;;;11.20;99.90;;;;;;5058539;28;20212;-81
2022/05/17 04:33:55;;;;;;;10.03;4.53;;;11.20;99.90;;;;;;5060006;28;20194;-80
2022/05/17 04:36:22;;;;;;;8.93;4.50;;;11.20;99.90;;;;;;5061265;28;20170;-81
2022/05/17 04:38:48;;;;;;;7.73;5.73;;;11.20;99.90;;;;;;5060036;28;20585;-81
2022/05/17 04:41:14;;;;;;;6.67;4.47;;;;;;;;;;5059688;28;20185;-80
2022/05/17 04:43:40;;;;;;;7.10;4.13;;;11.40;99.90;;;;;;5060227;28;20205;-80
2022/05/17 04:46:08;;;;;;;7.10;3.77;;;11.40;99.90;;;;;;5059738;28;20177;-81
2022/05/17 04:48:33;;;;;;;14.03;5.23;;;11.50;99.90;;;;;;5060703;28;20178;-80
2022/05/17 04:50:59;;;;;;;8.17;4.60;;;11.60;99.90;;;;;;5060380;28;20295;-80
2022/05/17 04:53:25;;;;;;;9.43;4.80;;;11.60;99.90;;;;;;5058477;28;20187;-81
2022/05/17 04:55:50;;;;;;;8.57;4.87;;;11.60;99.90;;;;;;5061571;28;20177;-80
2022/05/17 04:58:16;;;;;;;8.30;3.87;;;11.70;99.90;;;;;;5059422;28;20184;-80
2022/05/17 05:00:42;;;;;;;9.50;4.57;;;11.70;99.90;;;;;;5057802;28;20178;-80
2022/05/17 05:03:08;;;;;;;7.03;4.23;;;;;;;;;;5056598;28;20587;-80
2022/05/17 05:05:33;;;;;;;5.37;3.97;;;11.90;99.90;;;;;;5061182;28;20197;-80
2022/05/17 05:07:59;;;;;;;5.40;3.97;;;11.90;99.90;;;;;;5065229;28;20177;-80
2022/05/17 05:10:25;;;;;;;6.17;3.30;;;12.00;99.90;;;;;;5062741;28;20567;-77
2022/05/17 05:12:50;;;;;;;3.67;3.10;;;12.00;99.90;;;;;;5062942;28;20623;-81
2022/05/17 05:15:16;;;;;;;4.57;3.67;;;12.10;99.90;;;;;;5062567;28;20202;-82
2022/05/17 05:17:43;;;;;;;3.83;2.93;;;12.10;99.90;;;;;;5063367;28;20233;-81
2022/05/17 05:20:13;;;;;;;5.23;3.20;;;12.20;99.90;;;;;;5061368;28;20209;-81
2022/05/17 05:22:39;;;;;;;8.03;3.47;;;12.30;99.90;;;;;;5063437;28;20189;-81
2022/05/17 05:25:05;;;;;;;5.93;3.00;;;12.30;99.90;;;;;;5062607;28;20247;-81
2022/05/17 05:27:33;;;;;;;10.13;3.50;;;12.40;99.90;;;;;;5063223;28;20188;-81
2022/05/17 05:30:00;;;;;;;3.77;2.93;;;12.60;99.90;;;;;;5061029;28;20201;-80
2022/05/17 05:32:25;;;;;;;5.77;2.90;;;12.70;99.90;;;;;;5062898;28;20181;-81
2022/05/17 05:34:51;;;;;;;5.87;2.87;;;13.00;99.90;;;;;;5065025;28;20221;-80
2022/05/17 05:37:17;;;;;;;5.53;2.77;;;13.10;99.90;;;;;;5063045;28;20178;-80
2022/05/17 05:39:43;;;;;;;4.37;2.37;;;13.30;99.90;;;;;;5062671;28;20658;-80
2022/05/17 05:42:09;;;;;;;4.23;3.30;;;13.30;99.90;;;;;;5063294;28;20197;-80
2022/05/17 05:44:35;;;;;;;2.90;2.37;;;13.40;99.90;;;;;;5064266;28;20546;-80
2022/05/17 05:47:01;;;;;;;4.10;2.70;;;13.50;99.90;;;;;;5064576;28;20208;-80
2022/05/17 05:49:27;;;;;;;3.47;2.97;;;13.60;99.90;;;;;;5062610;28;20181;-80
2022/05/17 05:51:53;;;;;;;4.17;2.50;;;;;;;;;;5063689;28;20177;-80
2022/05/17 05:54:19;;;;;;;4.67;2.67;;;13.80;99.90;;;;;;5064778;28;20200;-80
2022/05/17 05:56:44;;;;;;;2.70;2.17;;;13.90;99.90;;;;;;5064147;28;20181;-79
2022/05/17 05:59:11;;;;;;;3.40;2.70;;;14.00;99.90;;;;;;5064048;28;20241;-80
2022/05/17 06:01:37;;;;;;;6.33;2.83;;;14.00;99.90;;;;;;5064665;28;20184;-80
2022/05/17 06:04:03;;;;;;;4.70;2.77;;;14.00;99.90;;;;;;5064211;28;20221;-80
2022/05/17 06:06:30;;;;;;;5.90;2.80;;;14.00;99.90;;;;;;5062073;28;20177;-80
2022/05/17 06:08:56;;;;;;;4.03;2.80;;;13.90;99.90;;;;;;5062675;28;20590;-80
2022/05/17 06:11:21;;;;;;;9.70;3.50;;;13.90;99.90;;;;;;5062167;28;20213;-80
2022/05/17 06:13:47;;;;;;;8.90;3.50;;;14.00;99.90;;;;;;5063174;28;20232;-79
2022/05/17 06:16:13;;;;;;;7.83;3.50;;;14.00;99.90;;;;;;5063743;28;20201;-79
2022/05/17 06:18:39;;;;;;;7.27;3.43;;;14.10;99.90;;;;;;5064916;28;20173;-81
2022/05/17 06:21:05;;;;;;;16.50;5.03;;;14.20;99.90;;;;;;5062629;28;20244;-80
2022/05/17 06:23:31;;;;;;;12.17;4.30;;;14.40;99.90;;;;;;5064629;28;20662;-80
2022/05/17 06:25:58;;;;;;;11.07;4.57;;;14.40;99.90;;;;;;5063565;28;20188;-80
2022/05/17 06:28:24;;;;;;;5.60;2.90;;;14.50;99.90;;;;;;5063289;28;20192;-80
2022/05/17 06:30:50;;;;;;;7.23;3.17;;;14.60;99.90;;;;;;5065053;28;20726;-80
2022/05/17 06:33:16;;;;;;;10.60;3.20;;;14.70;99.90;;;;;;5064622;28;20177;-80
2022/05/17 06:35:43;;;;;;;7.03;2.90;;;14.70;99.90;;;;;;5063934;28;20193;-80
2022/05/17 06:38:09;;;;;;;5.30;2.90;;;14.90;99.90;;;;;;5061534;28;20235;-80
2022/05/17 06:40:36;;;;;;;6.43;3.20;;;15.00;99.90;;;;;;5061855;28;20193;-79
2022/05/17 06:43:02;;;;;;;3.90;2.93;;;15.10;99.90;;;;;;5062207;28;20185;-80
2022/05/17 06:45:27;;;;;;;10.73;3.30;;;15.30;99.90;;;;;;5062530;28;20197;-79
2022/05/17 06:47:53;;;;;;;5.57;3.40;;;15.40;99.90;;;;;;5060700;28;20185;-80
2022/05/17 06:50:20;;;;;;;7.63;3.30;;;15.50;99.90;;;;;;5058957;28;20701;-79
2022/05/17 06:52:46;;;;;;;4.40;3.20;;;15.60;99.90;;;;;;5060233;28;20505;-79
2022/05/17 06:55:13;;;;;;;9.27;3.50;;;15.70;99.90;;;;;;5060897;28;20232;-81
2022/05/17 06:57:40;;;;;;;5.47;3.43;;;15.70;99.90;;;;;;5059315;28;20188;-80
2022/05/17 07:00:11;;;;;;;6.30;3.33;;;15.80;99.90;;;;;;5058825;28;20642;-80
2022/05/17 07:02:37;;;;;;;5.73;3.13;;;16.00;99.90;;;;;;5059909;28;20245;-80
2022/05/17 07:05:04;;;;;;;4.00;3.23;;;16.10;99.90;;;;;;5057751;28;20197;-80
2022/05/17 07:07:29;;;;;;;7.10;3.17;;;16.20;99.90;;;;;;5057759;28;20534;-80
2022/05/17 07:15:23;;;;;;;3.70;3.40;;;16.30;99.90;;;;;;5055682;28;20207;-80
2022/05/17 07:17:49;;;;;;;8.47;4.00;;;16.30;99.90;;;;;;5054923;28;20170;-80
2022/05/17 07:20:15;;;;;;;5.57;4.07;;;16.50;99.90;;;;;;5063931;28;20244;-80
2022/05/17 07:22:42;;;;;;;4.53;3.47;;;16.70;99.90;;;;;;5063361;28;20180;-80
2022/05/17 07:25:11;;;;;;;7.83;3.77;;;17.00;99.90;;;;;;5064268;28;20234;-81
2022/05/17 07:27:36;;;;;;;4.60;3.30;;;17.20;99.90;;;;;;5064793;28;20182;-80
2022/05/17 07:30:04;;;;;;;4.27;3.13;;;17.30;99.90;;;;;;5061798;28;20202;-80
2022/05/17 07:32:30;;;;;;;4.80;4.00;;;17.30;99.90;;;;;;5061667;28;20173;-80
2022/05/17 07:34:55;;;;;;;5.00;3.03;;;17.40;99.90;;;;;;5063159;28;20189;-80
2022/05/17 07:37:21;;;;;;;6.23;3.63;;;17.40;99.90;;;;;;5060916;28;20182;-80
2022/05/17 07:39:47;;;;;;;6.60;3.63;;;17.50;99.90;;;;;;5063842;28;20608;-80
2022/05/17 07:42:13;;;;;;;10.97;3.90;;;17.70;99.90;;;;;;5062499;28;20182;-80
2022/05/17 07:44:39;;;;;;;6.43;3.67;;;18.00;99.90;;;;;;5062862;28;20190;-80
2022/05/17 07:47:05;;;;;;;6.37;3.50;;;18.10;99.90;;;;;;5060562;28;20198;-80
2022/05/17 07:49:35;;;;;;;7.03;3.93;;;18.40;99.90;;;;;;5060407;28;20690;-80
2022/05/17 07:52:02;;;;;;;7.37;3.20;;;18.60;99.90;;;;;;5062487;28;20599;-80
2022/05/17 07:54:28;;;;;;;6.37;3.80;;;18.70;99.90;;;;;;5060444;28;20202;-80
2022/05/17 07:56:53;;;;;;;6.27;3.90;;;18.70;99.90;;;;;;5061233;28;20537;-80
2022/05/17 07:59:19;;;;;;;5.07;3.10;;;18.70;99.90;;;;;;5061374;28;20201;-80
2022/05/17 08:01:45;;;;;;;6.83;3.80;;;18.70;99.90;;;;;;5062267;28;20261;-80
2022/05/17 08:04:11;;;;;;;5.23;2.80;;;18.80;99.90;;;;;;5062039;28;20196;-80
2022/05/17 08:06:38;;;;;;;4.97;3.57;;;18.60;99.90;;;;;;5061833;28;20188;-79
2022/05/17 08:09:05;;;;;;;5.60;3.70;;;18.40;99.90;;;;;;5060948;28;20184;-79
2022/05/17 08:11:31;;;;;;;6.03;4.07;;;18.90;99.90;;;;;;5061282;28;20196;-79
2022/05/17 08:13:57;;;;;;;4.80;3.87;;;19.50;99.90;;;;;;5061454;28;20289;-79
2022/05/17 08:16:23;;;;;;;5.97;3.27;;;20.20;99.90;;;;;;5061314;28;20514;-80
2022/05/17 08:18:48;;;;;;;5.47;3.30;;;20.10;99.90;;;;;;5059751;28;20184;-80
2022/05/17 08:21:14;;;;;;;4.40;3.17;;;20.50;99.90;;;;;;5061448;28;20201;-80
2022/05/17 08:23:39;;;;;;;5.37;3.60;;;20.80;99.90;;;;;;5061921;28;20264;-80
2022/05/17 08:28:49;;;;;;;5.37;3.60;;;20.60;99.90;;;;;;5062721;28;20167;-80
2022/05/17 08:31:15;;;;;;;4.57;3.23;;;20.90;99.90;;;;;;5061437;28;20229;-80
2022/05/17 08:33:41;;;;;;;6.83;3.50;;;21.20;99.90;;;;;;5062305;28;20667;-80
2022/05/17 08:36:11;;;;;;;4.90;2.97;;;21.20;99.90;;;;;;5060727;28;20177;-80
2022/05/17 08:38:42;;;;;;;5.97;2.97;;;20.90;99.90;;;;;;5061549;28;20240;-80
2022/05/17 08:41:24;;;;;;;5.63;3.10;;;21.10;99.90;;;;;;5061105;28;20177;-80
2022/05/17 08:44:08;;;;;;;4.90;3.10;;;20.80;99.90;;;;;;5060658;28;20204;-80
2022/05/17 08:47:05;;;;;;;3.63;2.97;;;20.80;99.90;;;;;;5062239;28;20174;-80
2022/05/17 08:49:53;;;;;;;3.33;2.83;;;21.10;99.90;;;;;;5061948;28;20185;-80
2022/05/17 08:52:22;;;;;;;6.03;3.43;;;21.20;99.90;;;;;;5062678;28;20174;-80
2022/05/17 08:55:32;;;;;;;8.70;3.50;;;21.30;99.90;;;;;;5060532;28;20221;-80
2022/05/17 08:58:15;;;;;;;5.70;3.00;;;21.30;99.90;;;;;;5062178;28;20166;-80
2022/05/17 09:00:50;;;;;;;4.43;2.80;;;21.70;99.90;;;;;;5060167;28;20174;-80
2022/05/17 09:03:44;;;;;;;3.73;3.17;;;22.00;99.90;;;;;;5060905;28;20215;-80
2022/05/17 09:06:36;;;;;;;3.20;2.90;;;22.50;99.90;;;;;;5062319;28;20167;-80
2022/05/17 09:09:07;;;;;;;7.37;3.00;;;22.90;99.90;;;;;;5061172;28;20180;-80
2022/05/17 09:11:46;;;;;;;3.70;2.90;;;23.30;99.90;;;;;;5063027;28;20211;-81
2022/05/17 09:14:19;;;;;;;5.17;3.37;;;23.60;99.90;;;;;;5061443;28;20205;-78
2022/05/17 09:16:47;;;;;;;5.63;3.30;;;23.80;99.90;;;;;;5062578;28;20581;-80
2022/05/17 09:19:15;;;;;;;5.00;3.13;;;23.90;99.90;;;;;;5063064;28;20177;-79
2022/05/17 09:21:43;;;;;;;4.13;2.90;;;23.80;99.90;;;;;;5062529;28;20182;-80
2022/05/17 09:24:13;;;;;;;6.00;3.10;;;23.80;99.90;;;;;;5063855;28;20198;-79
2022/05/17 09:26:51;;;;;;;7.70;3.30;;;23.90;99.90;;;;;;5056863;28;20178;-80
2022/05/17 09:29:35;;;;;;;7.03;3.73;;;23.90;99.90;;;;;;5055696;28;20712;-79
2022/05/17 09:32:03;;;;;;;4.10;3.53;;;24.00;99.90;;;;;;5055421;28;20508;-80
2022/05/17 09:34:34;;;;;;;8.93;3.50;;;23.90;99.90;;;;;;5052426;28;20196;-80
2022/05/17 09:37:18;;;;;;;5.87;3.20;;;23.30;99.90;;;;;;5053124;28;20619;-78
2022/05/17 09:39:49;;;;;;;5.70;3.07;;;23.40;99.90;;;;;;5058779;28;20162;-80
2022/05/17 09:42:21;;;;;;;5.90;3.50;;;23.60;99.90;;;;;;5061435;28;20176;-80
2022/05/17 09:44:49;;;;;;;6.23;3.93;;;23.90;99.90;;;;;;5064690;28;20332;-81
2022/05/17 09:47:29;;;;;;;5.43;3.50;;;24.00;99.90;;;;;;5062595;28;20177;-80
2022/05/17 09:52:45;;;;;;;5.03;3.63;;;24.20;99.90;;;;;;5063329;28;20178;-80
2022/05/17 09:55:16;;;;;;;7.90;3.50;;;24.40;99.90;;;;;;5062387;28;20661;-78
2022/05/17 09:58:02;;;;;;;4.07;3.60;;;24.50;99.90;;;;;;5061910;28;20176;-78
2022/05/17 10:00:42;;;;;;;8.27;3.50;;;24.50;99.90;;;;;;5062671;28;20200;-78
2022/05/17 10:03:26;;;;;;;4.80;2.97;;;24.30;99.90;;;;;;5063250;28;20164;-78
2022/05/17 10:06:05;;;;;;;4.90;2.90;;;23.90;99.90;;;;;;5064272;28;20176;-80
2022/05/17 10:08:34;;;;;;;4.60;2.90;;;24.10;99.90;;;;;;5061537;28;20238;-81
2022/05/17 10:11:15;;;;;;;9.23;2.90;;;24.40;99.90;;;;;;5063013;28;20285;-81
2022/05/17 10:14:09;;;;;;;4.77;2.60;;;24.50;99.90;;;;;;5063217;28;20715;-80
2022/05/17 10:16:54;;;;;;;7.53;3.17;;;24.10;99.90;;;;;;5061615;28;20642;-81
2022/05/17 10:19:43;;;;;;;5.97;2.80;;;23.70;99.90;;;;;;5062222;28;20186;-81
2022/05/17 10:22:37;;;;;;;4.20;3.07;;;22.70;99.90;;;;;;5064005;28;20150;-80
2022/05/17 10:25:18;;;;;;;3.40;2.57;;;23.30;99.90;;;;;;5061342;28;20239;-80
2022/05/17 10:27:48;;;;;;;3.87;2.70;;;24.10;99.90;;;;;;5062538;28;20188;-81
2022/05/17 10:30:25;;;;;;;4.07;3.00;;;24.70;99.90;;;;;;5063377;28;20680;-81
2022/05/17 10:33:03;;;;;;;4.00;2.50;;;25.20;99.90;;;;;;5062825;28;20227;-81
2022/05/17 10:35:39;;;;;;;3.50;2.60;;;25.60;99.90;;;;;;5066453;28;20204;-82
2022/05/17 10:38:11;;;;;;;7.30;2.73;;;26.10;99.90;;;;;;5066402;28;20719;-81
2022/05/17 10:40:43;;;;;;;5.07;3.10;;;26.20;99.90;;;;;;5065402;28;20235;-80
2022/05/17 10:43:15;;;;;;;4.50;3.10;;;25.90;99.90;;;;;;5065724;28;20177;-82
2022/05/17 10:45:44;;;;;;;5.77;2.70;;;25.10;99.90;;;;;;5066609;28;20279;-82
2022/05/17 10:48:38;;;;;;;3.20;2.27;;;24.50;99.90;;;;;;5067015;28;20173;-82
2022/05/17 10:51:20;;;;;;;3.40;2.17;;;24.30;99.90;;;;;;5064244;28;20189;-81
2022/05/17 10:54:08;;;;;;;2.47;2.00;;;24.80;99.90;;;;;;5064572;28;20761;-81
2022/05/17 10:57:02;;;;;;;4.57;1.93;;;25.30;99.90;;;;;;5064549;28;20166;-81
2022/05/17 10:59:31;;;;;;;4.70;2.23;;;25.40;99.90;;;;;;5064546;28;20161;-81
2022/05/17 11:02:15;;;;;;;3.73;2.27;;;25.60;99.90;;;;;;5063955;28;20204;-81
2022/05/17 11:05:03;;;;;;;3.50;2.60;;;25.90;99.90;;;;;;5062922;28;20265;-81
2022/05/17 11:07:54;;;;;;;3.33;1.73;;;26.20;99.90;;;;;;5063804;28;20175;-82
2022/05/17 11:10:19;;;;;;;5.00;1.87;;;26.30;99.90;;;;;;5063604;28;20203;-82
2022/05/17 11:12:54;;;;;;;2.80;1.70;;;26.50;96.90;;;;;;5062750;28;20175;-81
2022/05/17 11:15:32;;;;;;;3.83;1.80;;;26.70;98.60;;;;;;5065514;28;20186;-82
2022/05/17 11:18:21;;;;;;;1.90;1.70;;;26.80;94.40;;;;;;5063424;28;20166;-81
2022/05/17 11:20:55;;;;;;;3.73;2.00;;;25.70;97.40;;;;;;5044600;28;20242;-80
2022/05/17 11:23:43;;;;;;;5.60;1.77;;;26.40;98.60;;;;;;5066012;28;20175;-81
2022/05/17 11:26:28;;;;;;;6.30;1.63;;;26.40;98.00;;;;;;5062817;28;20209;-82
2022/05/17 11:29:21;;;;;;;2.53;1.60;;;26.90;93.20;;;;;;5061703;28;20239;-80
2022/05/17 11:31:55;;;;;;;2.57;1.40;;;26.70;97.10;;;;;;5062074;28;20680;-80
2022/05/17 11:34:26;;;;;;;2.23;1.53;;;27.00;92.40;;;;;;5061991;28;20199;-79
2022/05/17 11:36:54;;;;;;;2.03;1.70;;;26.90;90.00;;;;;;5058750;28;20262;-79
2022/05/17 11:39:29;;;;;;;1.90;1.43;;;26.40;95.10;;;;;;5059026;28;20575;-80
2022/05/17 11:42:05;;;;;;;2.23;1.53;;;27.10;99.90;;;;;;5058436;28;20207;-79
2022/05/17 11:44:41;;;;;;;4.67;2.03;;;28.20;94.80;;;;;;5058634;28;20202;-80
2022/05/17 11:47:28;;;;;;;2.20;1.40;;;28.30;95.00;;;;;;5057649;28;20256;-80
2022/05/17 11:50:18;;;;;;;2.90;1.50;;;28.70;92.20;;;;;;5054541;28;20163;-79
2022/05/17 11:52:54;;;;;;;3.83;1.77;;;29.00;88.10;;;;;;5059525;28;20162;-80
2022/05/17 11:55:26;;;;;;;2.27;1.80;;;28.90;92.50;;;;;;5060604;28;20188;-80
2022/05/17 11:57:51;;;;;;;2.40;1.53;;;29.20;90.20;;;;;;5057994;28;20170;-79
2022/05/17 12:00:42;;;;;;;2.77;1.47;;;28.70;91.70;;;;;;5059316;28;20177;-79
2022/05/17 12:03:20;;;;;;;3.33;1.60;;;28.70;81.00;;;;;;5058421;28;20173;-80
2022/05/17 12:05:48;;;;;;;2.63;1.60;;;28.70;76.80;;;;;;5057986;28;20200;-80
2022/05/17 12:08:37;;;;;;;3.03;1.60;;;28.70;88.60;;;;;;5058797;28;20536;-82
2022/05/17 12:11:11;;;;;;;3.03;1.93;;;28.90;85.80;;;;;;5059531;28;20208;-81
2022/05/17 12:14:08;;;;;;;2.67;1.70;;;28.90;74.10;;;;;;5061109;28;20243;-81
2022/05/17 12:16:36;;;;;;;7.17;2.50;;;28.60;74.90;;;;;;5057287;28;20677;-80
2022/05/17 12:19:41;;;;;;;6.00;2.00;;;26.80;85.30;;;;;;5062044;28;20255;-82
2022/05/17 12:22:14;;;;;;;3.57;2.00;;;25.70;85.80;;;;;;5061218;28;20193;-82
2022/05/17 12:25:02;;;;;;;4.17;1.43;;;27.10;91.30;;;;;;5061235;28;20209;-78
2022/05/17 12:27:34;;;;;;;2.77;1.80;;;27.70;81.70;;;;;;5059912;28;20179;-78
2022/05/17 12:33:11;;;;;;;3.47;1.67;;;26.00;80.30;;;;;;5062997;28;20233;-81
2022/05/17 12:35:37;;;;;;;2.67;1.80;;;;;;;;;;5062537;28;20186;-82
2022/05/17 12:43:02;;;;;;;4.57;1.80;;;;;;;;;;5061578;28;20174;-79
2022/05/17 12:43:44;;;;;;;2.10;1.67;;;29.30;78.60;;;;;;5061450;28;20231;-80
2022/05/17 12:46:31;;;;;;;3.03;1.60;;;30.00;89.70;;;;;;5060066;28;20195;-80
2022/05/17 12:49:00;;;;;;;3.03;1.70;;;30.00;80.80;;;;;;5058948;28;20182;-80
2022/05/17 12:51:27;;;;;;;4.03;1.67;;;;;;;;;;5059071;28;20668;-80
2022/05/17 12:53:54;;;;;;;4.53;1.70;;;29.90;72.10;;;;;;5058625;28;20215;-80
2022/05/17 12:56:20;;;;;;;3.00;1.80;;;29.90;72.40;;;;;;5059502;28;20206;-81
2022/05/17 12:58:57;;;;;;;2.47;1.47;;;29.40;70.40;;;;;;5058131;28;20179;-81
2022/05/17 13:01:49;;;;;;;3.83;1.80;;;29.50;68.30;;;;;;5057397;28;20584;-80
2022/05/17 13:04:17;;;;;;;4.17;2.57;;;29.60;69.90;;;;;;5054956;28;20211;-81
2022/05/17 13:06:51;;;;;;;4.87;1.70;;;29.40;77.10;;;;;;5058778;28;20181;-83
2022/05/17 13:09:23;;;;;;;9.90;1.80;;;29.20;77.00;;;;;;5058406;28;20180;-80
2022/05/17 13:11:50;;;;;;;4.40;1.70;;;29.40;75.80;;;;;;5058084;28;20193;-81
2022/05/17 13:14:27;;;;;;;1.70;1.60;;;29.20;76.00;;;;;;5056813;28;20215;-81
2022/05/17 13:16:56;;;;;;;3.77;1.60;;;29.30;72.40;;;;;;5057734;28;20173;-80
2022/05/17 13:19:25;;;;;;;4.80;1.60;;;29.40;70.40;;;;;;5062094;28;20640;-80
2022/05/17 13:21:54;;;;;;;2.93;1.70;;;29.70;82.60;;;;;;5060958;28;20188;-79
2022/05/17 13:24:34;;;;;;;1.97;1.70;;;29.60;73.30;;;;;;5061451;28;20194;-80
2022/05/17 13:27:12;;;;;;;2.80;1.57;;;29.60;80.20;;;;;;5060316;28;20158;-80
2022/05/17 13:29:40;;;;;;;3.87;1.63;;;29.40;77.70;;;;;;5061948;28;20201;-80
2022/05/17 13:32:18;;;;;;;2.70;1.70;;;29.50;72.90;;;;;;5060070;28;20196;-80
2022/05/17 13:34:45;;;;;;;3.50;2.00;;;29.90;78.60;;;;;;5060041;28;20201;-81
2022/05/17 13:37:18;;;;;;;2.73;2.00;;;29.90;73.20;;;;;;5058146;28;20181;-80